sensor_id;sensor_type;location;lat;lon;timestamp;pressure;altitude;pressure_sealevel;temperature;humidity
10510;BME280;5303;53.266;10.410;2024-03-08T00:01:50;102221.44;;;2.09;100.00
10510;BME280;5303;53.266;10.410;2024-03-08T00:03:50;102221.88;;;2.06;100.00
10510;BME280;5303;53.266;10.410;2024-03-08T00:05:52;102220.59;;;2.15;100.00
10510;BME280;5303;53.266;10.410;2024-03-08T00:07:52;102216.94;;;1.96;100.00
10510;BME280;5303;53.266;10.410;2024-03-08T00:09:53;102226.31;;;1.94;100.00
10510;BME280;5303;53.266;10.410;2024-03-08T00:11:53;102221.75;;;1.94;100.00
10510;BME280;5303;53.266;10.410;2024-03-08T00:13:53;102223.78;;;1.99;100.00
10510;BME280;5303;53.266;10.410;2024-03-08T00:15:54;102220.84;;;2.07;100.00
10510;BME280;5303;53.266;10.410;2024-03-08T00:17:54;102218.19;;;2.00;100.00
10510;BME280;5303;53.266;10.410;2024-03-08T00:19:54;102216.72;;;1.98;100.00
10510;BME280;5303;53.266;10.410;2024-03-08T00:21:54;102216.31;;;2.01;100.00
10510;BME280;5303;53.266;10.410;2024-03-08T00:23:55;102214.81;;;2.05;100.00
10510;BME280;5303;53.266;10.410;2024-03-08T00:25:55;102212.28;;;2.03;100.00
10510;BME280;5303;53.266;10.410;2024-03-08T00:27:56;102214.03;;;1.98;100.00
10510;BME280;5303;53.266;10.410;2024-03-08T00:29:57;102210.69;;;1.96;100.00
10510;BME280;5303;53.266;10.410;2024-03-08T00:31:57;102210.88;;;2.01;100.00
10510;BME280;5303;53.266;10.410;2024-03-08T00:33:58;102211.72;;;1.95;100.00
10510;BME280;5303;53.266;10.410;2024-03-08T00:35:58;102213.41;;;1.89;100.00
10510;BME280;5303;53.266;10.410;2024-03-08T00:37:58;102211.38;;;1.85;100.00
10510;BME280;5303;53.266;10.410;2024-03-08T00:39:58;102209.91;;;1.82;100.00
10510;BME280;5303;53.266;10.410;2024-03-08T00:41:59;102203.84;;;1.87;100.00
10510;BME280;5303;53.266;10.410;2024-03-08T00:43:59;102211.00;;;1.75;100.00
10510;BME280;5303;53.266;10.410;2024-03-08T00:45:59;102209.59;;;1.59;100.00
10510;BME280;5303;53.266;10.410;2024-03-08T00:47:59;102206.03;;;1.72;100.00
10510;BME280;5303;53.266;10.410;2024-03-08T00:50:00;102207.28;;;1.69;100.00
10510;BME280;5303;53.266;10.410;2024-03-08T00:52:04;102209.34;;;1.67;100.00
10510;BME280;5303;53.266;10.410;2024-03-08T00:54:07;102200.16;;;1.75;100.00
10510;BME280;5303;53.266;10.410;2024-03-08T00:56:10;102204.72;;;1.81;100.00
10510;BME280;5303;53.266;10.410;2024-03-08T00:58:10;102196.41;;;1.76;100.00
10510;BME280;5303;53.266;10.410;2024-03-08T01:00:11;102200.97;;;1.75;100.00
10510;BME280;5303;53.266;10.410;2024-03-08T01:02:12;102196.44;;;1.69;100.00
10510;BME280;5303;53.266;10.410;2024-03-08T01:04:12;102196.47;;;1.56;100.00
10510;BME280;5303;53.266;10.410;2024-03-08T01:06:12;102194.63;;;1.57;100.00
10510;BME280;5303;53.266;10.410;2024-03-08T01:08:13;102189.56;;;1.60;100.00
10510;BME280;5303;53.266;10.410;2024-03-08T01:10:13;102192.09;;;1.62;100.00
10510;BME280;5303;53.266;10.410;2024-03-08T01:12:13;102184.56;;;1.64;100.00
10510;BME280;5303;53.266;10.410;2024-03-08T01:14:13;102189.38;;;1.55;100.00
10510;BME280;5303;53.266;10.410;2024-03-08T01:16:14;102183.09;;;1.68;100.00
10510;BME280;5303;53.266;10.410;2024-03-08T01:18:14;102180.41;;;1.61;100.00
10510;BME280;5303;53.266;10.410;2024-03-08T01:20:14;102179.38;;;1.56;100.00
10510;BME280;5303;53.266;10.410;2024-03-08T01:22:14;102174.84;;;1.50;100.00
10510;BME280;5303;53.266;10.410;2024-03-08T01:24:15;102173.22;;;1.42;100.00
10510;BME280;5303;53.266;10.410;2024-03-08T01:26:15;102169.03;;;1.40;100.00
10510;BME280;5303;53.266;10.410;2024-03-08T01:28:16;102169.88;;;1.40;100.00
10510;BME280;5303;53.266;10.410;2024-03-08T01:30:16;102164.00;;;1.43;100.00
10510;BME280;5303;53.266;10.410;2024-03-08T01:32:17;102157.34;;;1.46;100.00
10510;BME280;5303;53.266;10.410;2024-03-08T01:34:19;102153.63;;;1.33;100.00
10510;BME280;5303;53.266;10.410;2024-03-08T01:36:19;102157.19;;;1.34;100.00
10510;BME280;5303;53.266;10.410;2024-03-08T01:38:20;102150.72;;;1.35;100.00
10510;BME280;5303;53.266;10.410;2024-03-08T01:40:23;102140.78;;;1.22;100.00
10510;BME280;5303;53.266;10.410;2024-03-08T01:42:23;102144.06;;;1.38;100.00
10510;BME280;5303;53.266;10.410;2024-03-08T01:44:24;102148.88;;;1.36;100.00
10510;BME280;5303;53.266;10.410;2024-03-08T01:46:24;102137.75;;;1.44;100.00
10510;BME280;5303;53.266;10.410;2024-03-08T01:48:29;102134.22;;;1.43;100.00
10510;BME280;5303;53.266;10.410;2024-03-08T01:50:29;102140.91;;;1.41;100.00
10510;BME280;5303;53.266;10.410;2024-03-08T01:52:30;102133.22;;;1.38;100.00
10510;BME280;5303;53.266;10.410;2024-03-08T01:54:31;102134.72;;;1.27;100.00
10510;BME280;5303;53.266;10.410;2024-03-08T01:56:32;102137.41;;;1.27;100.00
10510;BME280;5303;53.266;10.410;2024-03-08T01:58:32;102125.75;;;1.26;100.00
10510;BME280;5303;53.266;10.410;2024-03-08T02:00:34;102119.06;;;1.29;100.00
10510;BME280;5303;53.266;10.410;2024-03-08T02:02:37;102122.44;;;1.24;100.00
10510;BME280;5303;53.266;10.410;2024-03-08T02:04:37;102119.72;;;1.24;100.00
10510;BME280;5303;53.266;10.410;2024-03-08T02:06:38;102116.16;;;1.30;100.00
10510;BME280;5303;53.266;10.410;2024-03-08T02:08:39;102116.59;;;1.27;100.00
10510;BME280;5303;53.266;10.410;2024-03-08T02:10:41;102114.91;;;1.33;100.00
10510;BME280;5303;53.266;10.410;2024-03-08T02:12:42;102114.91;;;1.33;100.00
10510;BME280;5303;53.266;10.410;2024-03-08T02:14:42;102118.22;;;1.28;100.00
10510;BME280;5303;53.266;10.410;2024-03-08T02:16:44;102113.66;;;1.36;100.00
10510;BME280;5303;53.266;10.410;2024-03-08T02:18:44;102111.78;;;1.29;100.00
10510;BME280;5303;53.266;10.410;2024-03-08T02:20:49;102111.22;;;1.21;100.00
10510;BME280;5303;53.266;10.410;2024-03-08T02:22:50;102106.59;;;1.21;100.00
10510;BME280;5303;53.266;10.410;2024-03-08T02:24:50;102105.59;;;1.16;100.00
10510;BME280;5303;53.266;10.410;2024-03-08T02:26:51;102106.03;;;1.13;100.00
10510;BME280;5303;53.266;10.410;2024-03-08T02:28:51;102102.91;;;1.09;100.00
10510;BME280;5303;53.266;10.410;2024-03-08T02:30:52;102103.75;;;1.10;100.00
10510;BME280;5303;53.266;10.410;2024-03-08T02:32:55;102103.34;;;1.06;100.00
10510;BME280;5303;53.266;10.410;2024-03-08T02:34:56;102098.31;;;1.10;100.00
10510;BME280;5303;53.266;10.410;2024-03-08T02:36:59;102098.75;;;1.13;100.00
10510;BME280;5303;53.266;10.410;2024-03-08T02:39:02;102103.72;;;1.16;100.00
10510;BME280;5303;53.266;10.410;2024-03-08T02:41:03;102095.03;;;1.01;100.00
10510;BME280;5303;53.266;10.410;2024-03-08T02:43:03;102106.69;;;0.95;100.00
10510;BME280;5303;53.266;10.410;2024-03-08T02:45:05;102097.78;;;0.88;100.00
10510;BME280;5303;53.266;10.410;2024-03-08T02:47:05;102102.16;;;0.89;100.00
10510;BME280;5303;53.266;10.410;2024-03-08T02:49:06;102095.25;;;0.93;100.00
10510;BME280;5303;53.266;10.410;2024-03-08T02:51:08;102089.84;;;0.93;100.00
10510;BME280;5303;53.266;10.410;2024-03-08T02:53:08;102089.63;;;1.01;100.00
10510;BME280;5303;53.266;10.410;2024-03-08T02:55:09;102087.16;;;0.87;100.00
10510;BME280;5303;53.266;10.410;2024-03-08T02:57:10;102086.56;;;0.85;100.00
10510;BME280;5303;53.266;10.410;2024-03-08T02:59:15;102084.66;;;0.85;100.00
10510;BME280;5303;53.266;10.410;2024-03-08T03:01:17;102082.00;;;0.72;100.00
10510;BME280;5303;53.266;10.410;2024-03-08T03:03:20;102079.28;;;0.79;100.00
10510;BME280;5303;53.266;10.410;2024-03-08T03:05:21;102085.94;;;0.76;100.00
10510;BME280;5303;53.266;10.410;2024-03-08T03:07:21;102089.72;;;0.75;100.00
10510;BME280;5303;53.266;10.410;2024-03-08T03:09:21;102081.16;;;0.72;100.00
10510;BME280;5303;53.266;10.410;2024-03-08T03:11:24;102078.47;;;0.65;100.00
10510;BME280;5303;53.266;10.410;2024-03-08T03:13:24;102078.69;;;0.63;100.00
10510;BME280;5303;53.266;10.410;2024-03-08T03:15:24;102084.94;;;0.64;100.00
10510;BME280;5303;53.266;10.410;2024-03-08T03:17:24;102072.03;;;0.59;100.00
10510;BME280;5303;53.266;10.410;2024-03-08T03:19:25;102075.13;;;0.63;100.00
10510;BME280;5303;53.266;10.410;2024-03-08T03:21:28;102078.06;;;0.61;100.00
10510;BME280;5303;53.266;10.410;2024-03-08T03:23:28;102074.31;;;0.56;100.00
10510;BME280;5303;53.266;10.410;2024-03-08T03:25:33;102076.41;;;0.60;100.00
10510;BME280;5303;53.266;10.410;2024-03-08T03:27:35;102081.19;;;0.58;100.00
10510;BME280;5303;53.266;10.410;2024-03-08T03:29:43;102072.25;;;0.58;100.00
10510;BME280;5303;53.266;10.410;2024-03-08T03:31:45;102068.09;;;0.62;100.00
10510;BME280;5303;53.266;10.410;2024-03-08T03:33:46;102069.97;;;0.55;100.00
10510;BME280;5303;53.266;10.410;2024-03-08T03:35:47;102071.41;;;0.64;100.00
10510;BME280;5303;53.266;10.410;2024-03-08T03:37:48;102070.16;;;0.60;100.00
10510;BME280;5303;53.266;10.410;2024-03-08T03:40:23;102073.91;;;0.59;100.00
10510;BME280;5303;53.266;10.410;2024-03-08T03:42:25;102071.41;;;0.57;100.00
10510;BME280;5303;53.266;10.410;2024-03-08T03:44:26;102077.22;;;0.61;100.00
10510;BME280;5303;53.266;10.410;2024-03-08T03:46:26;102072.25;;;0.58;100.00
10510;BME280;5303;53.266;10.410;2024-03-08T03:48:27;102069.09;;;0.61;100.00
10510;BME280;5303;53.266;10.410;2024-03-08T03:50:27;102073.06;;;0.58;100.00
10510;BME280;5303;53.266;10.410;2024-03-08T03:52:27;102072.44;;;0.56;100.00
10510;BME280;5303;53.266;10.410;2024-03-08T03:54:28;102065.19;;;0.57;100.00
10510;BME280;5303;53.266;10.410;2024-03-08T03:56:30;102065.78;;;0.59;100.00
10510;BME280;5303;53.266;10.410;2024-03-08T03:58:30;102071.41;;;0.57;100.00
10510;BME280;5303;53.266;10.410;2024-03-08T04:00:31;102066.84;;;0.51;100.00
10510;BME280;5303;53.266;10.410;2024-03-08T04:02:32;102069.53;;;0.51;100.00
10510;BME280;5303;53.266;10.410;2024-03-08T04:04:32;102072.69;;;0.48;100.00
10510;BME280;5303;53.266;10.410;2024-03-08T04:06:32;102067.28;;;0.48;100.00
10510;BME280;5303;53.266;10.410;2024-03-08T04:08:33;102066.84;;;0.45;100.00
10510;BME280;5303;53.266;10.410;2024-03-08T04:10:34;102063.53;;;0.43;100.00
10510;BME280;5303;53.266;10.410;2024-03-08T04:12:34;102068.13;;;0.42;100.00
10510;BME280;5303;53.266;10.410;2024-03-08T04:14:35;102063.13;;;0.46;100.00
10510;BME280;5303;53.266;10.410;2024-03-08T04:16:35;102061.88;;;0.42;100.00
10510;BME280;5303;53.266;10.410;2024-03-08T04:18:37;102065.19;;;0.44;100.00
10510;BME280;5303;53.266;10.410;2024-03-08T04:20:38;102061.03;;;0.35;100.00
10510;BME280;5303;53.266;10.410;2024-03-08T04:22:40;102064.78;;;0.47;100.00
10510;BME280;5303;53.266;10.410;2024-03-08T04:24:40;102062.06;;;0.47;100.00
10510;BME280;5303;53.266;10.410;2024-03-08T04:26:40;102069.78;;;0.50;100.00
10510;BME280;5303;53.266;10.410;2024-03-08T04:28:41;102067.88;;;0.57;100.00
10510;BME280;5303;53.266;10.410;2024-03-08T04:30:41;102062.28;;;0.52;100.00
10510;BME280;5303;53.266;10.410;2024-03-08T04:32:41;102069.34;;;0.53;100.00
10510;BME280;5303;53.266;10.410;2024-03-08T04:34:42;102057.06;;;0.44;100.00
10510;BME280;5303;53.266;10.410;2024-03-08T04:36:44;102049.41;;;0.41;100.00
10510;BME280;5303;53.266;10.410;2024-03-08T04:38:44;102050.66;;;0.38;100.00
10510;BME280;5303;53.266;10.410;2024-03-08T04:40:45;102051.69;;;0.31;100.00
10510;BME280;5303;53.266;10.410;2024-03-08T04:42:46;102052.31;;;0.33;100.00
10510;BME280;5303;53.266;10.410;2024-03-08T04:44:46;102051.88;;;0.29;100.00
10510;BME280;5303;53.266;10.410;2024-03-08T04:46:46;102053.56;;;0.30;100.00
10510;BME280;5303;53.266;10.410;2024-03-08T04:48:47;102047.75;;;0.20;100.00
10510;BME280;5303;53.266;10.410;2024-03-08T04:50:47;102051.06;;;0.22;100.00
10510;BME280;5303;53.266;10.410;2024-03-08T04:52:47;102044.44;;;0.18;100.00
10510;BME280;5303;53.266;10.410;2024-03-08T04:54:48;102044.00;;;0.21;100.00
10510;BME280;5303;53.266;10.410;2024-03-08T04:56:49;102047.34;;;0.23;100.00
10510;BME280;5303;53.266;10.410;2024-03-08T04:58:49;102039.44;;;0.28;100.00
10510;BME280;5303;53.266;10.410;2024-03-08T05:00:49;102047.72;;;0.27;100.00
10510;BME280;5303;53.266;10.410;2024-03-08T05:02:50;102045.47;;;0.24;100.00
10510;BME280;5303;53.266;10.410;2024-03-08T05:04:53;102037.38;;;0.24;100.00
10510;BME280;5303;53.266;10.410;2024-03-08T05:06:53;102040.47;;;0.27;100.00
10510;BME280;5303;53.266;10.410;2024-03-08T05:08:53;102035.47;;;0.31;100.00
10510;BME280;5303;53.266;10.410;2024-03-08T05:10:54;102036.50;;;0.30;100.00
10510;BME280;5303;53.266;10.410;2024-03-08T05:12:54;102029.81;;;0.39;100.00
10510;BME280;5303;53.266;10.410;2024-03-08T05:14:54;102032.75;;;0.37;100.00
10510;BME280;5303;53.266;10.410;2024-03-08T05:16:55;102035.88;;;0.41;100.00
10510;BME280;5303;53.266;10.410;2024-03-08T05:18:56;102036.31;;;0.25;100.00
10510;BME280;5303;53.266;10.410;2024-03-08T05:20:57;102028.63;;;0.28;100.00
10510;BME280;5303;53.266;10.410;2024-03-08T05:22:57;102028.81;;;0.27;100.00
10510;BME280;5303;53.266;10.410;2024-03-08T05:25:00;102028.19;;;0.25;100.00
10510;BME280;5303;53.266;10.410;2024-03-08T05:27:01;102034.41;;;0.32;100.00
10510;BME280;5303;53.266;10.410;2024-03-08T05:29:02;102026.09;;;0.27;100.00
10510;BME280;5303;53.266;10.410;2024-03-08T05:31:03;102029.25;;;0.24;100.00
10510;BME280;5303;53.266;10.410;2024-03-08T05:33:04;102027.38;;;0.18;100.00
10510;BME280;5303;53.266;10.410;2024-03-08T05:35:04;102030.72;;;0.13;100.00
10510;BME280;5303;53.266;10.410;2024-03-08T05:37:07;102026.97;;;0.21;100.00
10510;BME280;5303;53.266;10.410;2024-03-08T05:39:07;102029.06;;;0.19;100.00
10510;BME280;5303;53.266;10.410;2024-03-08T05:41:07;102026.13;;;0.14;100.00
10510;BME280;5303;53.266;10.410;2024-03-08T05:43:08;102030.28;;;0.23;100.00
10510;BME280;5303;53.266;10.410;2024-03-08T05:45:08;102024.47;;;0.26;100.00
10510;BME280;5303;53.266;10.410;2024-03-08T05:47:11;102021.97;;;0.18;100.00
10510;BME280;5303;53.266;10.410;2024-03-08T05:49:11;102021.34;;;0.22;100.00
10510;BME280;5303;53.266;10.410;2024-03-08T05:51:11;102024.47;;;0.13;100.00
10510;BME280;5303;53.266;10.410;2024-03-08T05:53:12;102027.16;;;0.13;100.00
10510;BME280;5303;53.266;10.410;2024-03-08T05:55:13;102030.06;;;0.18;100.00
10510;BME280;5303;53.266;10.410;2024-03-08T05:57:14;102021.56;;;0.08;100.00
10510;BME280;5303;53.266;10.410;2024-03-08T05:59:14;102027.59;;;0.03;100.00
10510;BME280;5303;53.266;10.410;2024-03-08T06:01:14;102026.13;;;0.00;100.00
10510;BME280;5303;53.266;10.410;2024-03-08T06:03:15;102019.69;;;0.02;100.00
10510;BME280;5303;53.266;10.410;2024-03-08T06:05:15;102019.91;;;-0.07;100.00
10510;BME280;5303;53.266;10.410;2024-03-08T06:07:16;102024.06;;;0.03;100.00
10510;BME280;5303;53.266;10.410;2024-03-08T06:09:17;102030.09;;;0.05;100.00
10510;BME280;5303;53.266;10.410;2024-03-08T06:11:23;102024.25;;;0.08;100.00
10510;BME280;5303;53.266;10.410;2024-03-08T06:13:23;102025.72;;;0.17;100.00
10510;BME280;5303;53.266;10.410;2024-03-08T06:15:23;102029.25;;;0.11;100.00
10510;BME280;5303;53.266;10.410;2024-03-08T06:17:23;102025.31;;;0.07;100.00
10510;BME280;5303;53.266;10.410;2024-03-08T06:19:25;102030.72;;;0.07;100.00
10510;BME280;5303;53.266;10.410;2024-03-08T06:21:26;102030.31;;;0.10;100.00
10510;BME280;5303;53.266;10.410;2024-03-08T06:23:27;102027.78;;;0.15;100.00
10510;BME280;5303;53.266;10.410;2024-03-08T06:25:27;102031.53;;;0.20;100.00
10510;BME280;5303;53.266;10.410;2024-03-08T06:27:27;102026.97;;;0.21;100.00
10510;BME280;5303;53.266;10.410;2024-03-08T06:29:28;102028.19;;;0.25;100.00
10510;BME280;5303;53.266;10.410;2024-03-08T06:31:28;102024.91;;;0.16;100.00
10510;BME280;5303;53.266;10.410;2024-03-08T06:33:28;102026.13;;;0.20;100.00
10510;BME280;5303;53.266;10.410;2024-03-08T06:35:29;102029.66;;;0.21;100.00
10510;BME280;5303;53.266;10.410;2024-03-08T06:37:32;102031.34;;;0.22;100.00
10510;BME280;5303;53.266;10.410;2024-03-08T06:39:32;102027.38;;;0.18;100.00
10510;BME280;5303;53.266;10.410;2024-03-08T06:41:37;102024.25;;;0.27;100.00
10510;BME280;5303;53.266;10.410;2024-03-08T06:43:37;102023.84;;;0.24;100.00
10510;BME280;5303;53.266;10.410;2024-03-08T06:45:37;102022.59;;;0.20;100.00
10510;BME280;5303;53.266;10.410;2024-03-08T06:47:38;102015.09;;;0.35;100.00
10510;BME280;5303;53.266;10.410;2024-03-08T06:49:38;102025.06;;;0.28;100.00
10510;BME280;5303;53.266;10.410;2024-03-08T06:51:39;102022.16;;;0.29;100.00
10510;BME280;5303;53.266;10.410;2024-03-08T06:53:41;102013.84;;;0.31;100.00
10510;BME280;5303;53.266;10.410;2024-03-08T06:55:41;102015.69;;;0.37;100.00
10510;BME280;5303;53.266;10.410;2024-03-08T06:57:41;102015.91;;;0.42;100.00
10510;BME280;5303;53.266;10.410;2024-03-08T06:59:42;102014.03;;;0.42;100.00
10510;BME280;5303;53.266;10.410;2024-03-08T07:01:42;102017.97;;;0.40;100.00
10510;BME280;5303;53.266;10.410;2024-03-08T07:03:42;102023.38;;;0.40;100.00
10510;BME280;5303;53.266;10.410;2024-03-08T07:05:44;102015.06;;;0.48;100.00
10510;BME280;5303;53.266;10.410;2024-03-08T07:07:45;102014.00;;;0.55;100.00
10510;BME280;5303;53.266;10.410;2024-03-08T07:09:48;102016.69;;;0.62;100.00
10510;BME280;5303;53.266;10.410;2024-03-08T07:11:49;102018.31;;;0.70;100.00
10510;BME280;5303;53.266;10.410;2024-03-08T07:13:54;102023.94;;;0.68;100.00
10510;BME280;5303;53.266;10.410;2024-03-08T07:15:54;102021.03;;;0.70;100.00
10510;BME280;5303;53.266;10.410;2024-03-08T07:17:55;102023.09;;;0.74;100.00
10510;BME280;5303;53.266;10.410;2024-03-08T07:19:55;102013.09;;;0.68;100.00
10510;BME280;5303;53.266;10.410;2024-03-08T07:21:57;102014.59;;;0.64;100.00
10510;BME280;5303;53.266;10.410;2024-03-08T07:23:57;102014.75;;;0.76;100.00
10510;BME280;5303;53.266;10.410;2024-03-08T07:26:00;102011.84;;;0.77;100.00
10510;BME280;5303;53.266;10.410;2024-03-08T07:28:01;102014.75;;;0.82;100.00
10510;BME280;5303;53.266;10.410;2024-03-08T07:30:02;102021.41;;;0.80;100.00
10510;BME280;5303;53.266;10.410;2024-03-08T07:32:03;102016.38;;;0.83;100.00
10510;BME280;5303;53.266;10.410;2024-03-08T07:34:19;102008.09;;;0.78;100.00
10510;BME280;5303;53.266;10.410;2024-03-08T07:36:21;102019.09;;;0.83;100.00
10510;BME280;5303;53.266;10.410;2024-03-08T07:38:22;102018.25;;;0.83;100.00
10510;BME280;5303;53.266;10.410;2024-03-08T07:40:23;102013.50;;;0.85;100.00
10510;BME280;5303;53.266;10.410;2024-03-08T07:42:23;102018.78;;;1.04;100.00
10510;BME280;5303;53.266;10.410;2024-03-08T07:44:23;102022.59;;;0.97;100.00
10510;BME280;5303;53.266;10.410;2024-03-08T07:46:24;102021.13;;;1.01;100.00
10510;BME280;5303;53.266;10.410;2024-03-08T07:48:24;102012.75;;;1.02;100.00
10510;BME280;5303;53.266;10.410;2024-03-08T07:50:24;102021.44;;;1.17;100.00
10510;BME280;5303;53.266;10.410;2024-03-08T07:52:24;102010.19;;;1.20;100.00
10510;BME280;5303;53.266;10.410;2024-03-08T07:54:25;102005.31;;;1.36;100.00
10510;BME280;5303;53.266;10.410;2024-03-08T07:56:26;102017.19;;;1.34;100.00
10510;BME280;5303;53.266;10.410;2024-03-08T07:58:26;102023.22;;;1.37;100.00
10510;BME280;5303;53.266;10.410;2024-03-08T08:00:26;102019.47;;;1.38;100.00
10510;BME280;5303;53.266;10.410;2024-03-08T08:02:27;102009.47;;;1.38;100.00
10510;BME280;5303;53.266;10.410;2024-03-08T08:04:27;102010.63;;;1.49;100.00
10510;BME280;5303;53.266;10.410;2024-03-08T08:06:28;102013.16;;;1.44;100.00
10510;BME280;5303;53.266;10.410;2024-03-08T08:08:31;102011.91;;;1.46;100.00
10510;BME280;5303;53.266;10.410;2024-03-08T08:10:32;102011.41;;;1.56;100.00
10510;BME280;5303;53.266;10.410;2024-03-08T08:12:32;102012.38;;;1.68;100.00
10510;BME280;5303;53.266;10.410;2024-03-08T08:14:34;102011.50;;;1.74;100.00
10510;BME280;5303;53.266;10.410;2024-03-08T08:16:35;102006.09;;;1.74;100.00
10510;BME280;5303;53.266;10.410;2024-03-08T08:18:41;102005.41;;;1.78;100.00
10510;BME280;5303;53.266;10.410;2024-03-08T08:20:41;102003.84;;;1.89;100.00
10510;BME280;5303;53.266;10.410;2024-03-08T08:22:42;102007.03;;;1.86;100.00
10510;BME280;5303;53.266;10.410;2024-03-08T08:24:45;102002.38;;;1.93;100.00
10510;BME280;5303;53.266;10.410;2024-03-08T08:26:45;101996.97;;;1.93;100.00
10510;BME280;5303;53.266;10.410;2024-03-08T08:28:45;102007.03;;;2.11;100.00
10510;BME280;5303;53.266;10.410;2024-03-08T08:30:46;102008.56;;;2.25;100.00
10510;BME280;5303;53.266;10.410;2024-03-08T08:32:46;101994.53;;;2.28;100.00
10510;BME280;5303;53.266;10.410;2024-03-08T08:34:47;101999.91;;;2.34;100.00
10510;BME280;5303;53.266;10.410;2024-03-08T08:36:48;102000.09;;;2.33;100.00
10510;BME280;5303;53.266;10.410;2024-03-08T08:38:48;102004.72;;;2.50;100.00
10510;BME280;5303;53.266;10.410;2024-03-08T08:40:48;101996.31;;;2.58;100.00
10510;BME280;5303;53.266;10.410;2024-03-08T08:42:49;101999.22;;;2.57;100.00
10510;BME280;5303;53.266;10.410;2024-03-08T08:44:49;101996.31;;;2.58;100.00
10510;BME280;5303;53.266;10.410;2024-03-08T08:46:50;101995.59;;;2.81;100.00
10510;BME280;5303;53.266;10.410;2024-03-08T08:48:51;101992.72;;;2.94;100.00
10510;BME280;5303;53.266;10.410;2024-03-08T08:50:52;101982.84;;;2.82;100.00
10510;BME280;5303;53.266;10.410;2024-03-08T08:52:52;101981.38;;;2.86;100.00
10510;BME280;5303;53.266;10.410;2024-03-08T08:54:53;101985.69;;;3.05;100.00
10510;BME280;5303;53.266;10.410;2024-03-08T08:56:53;101972.25;;;3.10;100.00
10510;BME280;5303;53.266;10.410;2024-03-08T08:58:53;101968.63;;;3.16;100.00
10510;BME280;5303;53.266;10.410;2024-03-08T09:00:54;101966.19;;;3.26;100.00
10510;BME280;5303;53.266;10.410;2024-03-08T09:02:54;101969.72;;;3.26;100.00
10510;BME280;5303;53.266;10.410;2024-03-08T09:04:57;101959.06;;;3.25;100.00
10510;BME280;5303;53.266;10.410;2024-03-08T09:06:57;101966.31;;;3.31;100.00
10510;BME280;5303;53.266;10.410;2024-03-08T09:08:58;101966.59;;;3.41;100.00
10510;BME280;5303;53.266;10.410;2024-03-08T09:10:58;101966.59;;;3.53;100.00
10510;BME280;5303;53.266;10.410;2024-03-08T09:12:59;101952.56;;;3.67;100.00
10510;BME280;5303;53.266;10.410;2024-03-08T09:15:00;101955.75;;;3.76;100.00
10510;BME280;5303;53.266;10.410;2024-03-08T09:17:00;101956.72;;;3.81;100.00
10510;BME280;5303;53.266;10.410;2024-03-08T09:19:00;101953.88;;;3.76;100.00
10510;BME280;5303;53.266;10.410;2024-03-08T09:21:00;101954.72;;;3.88;100.00
10510;BME280;5303;53.266;10.410;2024-03-08T09:23:01;101945.25;;;4.02;100.00
10510;BME280;5303;53.266;10.410;2024-03-08T09:25:01;101946.22;;;3.96;100.00
10510;BME280;5303;53.266;10.410;2024-03-08T09:27:01;101936.88;;;4.04;100.00
10510;BME280;5303;53.266;10.410;2024-03-08T09:29:03;101946.44;;;4.07;100.00
10510;BME280;5303;53.266;10.410;2024-03-08T09:31:03;101939.47;;;4.11;100.00
10510;BME280;5303;53.266;10.410;2024-03-08T09:33:05;101939.69;;;4.21;100.00
10510;BME280;5303;53.266;10.410;2024-03-08T09:35:06;101940.16;;;4.29;100.00
10510;BME280;5303;53.266;10.410;2024-03-08T09:37:07;101931.78;;;4.31;100.00
10510;BME280;5303;53.266;10.410;2024-03-08T09:39:08;101937.53;;;4.34;100.00
10510;BME280;5303;53.266;10.410;2024-03-08T09:41:09;101932.81;;;4.30;100.00
10510;BME280;5303;53.266;10.410;2024-03-08T09:43:10;101935.75;;;4.40;100.00
10510;BME280;5303;53.266;10.410;2024-03-08T09:45:12;101930.66;;;4.43;100.00
10510;BME280;5303;53.266;10.410;2024-03-08T09:47:15;101918.97;;;4.43;100.00
10510;BME280;5303;53.266;10.410;2024-03-08T09:49:16;101923.00;;;4.40;100.00
10510;BME280;5303;53.266;10.410;2024-03-08T09:51:17;101916.78;;;4.56;100.00
10510;BME280;5303;53.266;10.410;2024-03-08T09:53:17;101916.06;;;4.61;100.00
10510;BME280;5303;53.266;10.410;2024-03-08T09:55:19;101907.31;;;4.59;100.00
10510;BME280;5303;53.266;10.410;2024-03-08T09:57:22;101915.78;;;4.74;100.00
10510;BME280;5303;53.266;10.410;2024-03-08T09:59:22;101909.03;;;4.77;100.00
10510;BME280;5303;53.266;10.410;2024-03-08T10:01:22;101903.72;;;4.70;100.00
10510;BME280;5303;53.266;10.410;2024-03-08T10:03:23;101898.38;;;4.75;100.00
10510;BME280;5303;53.266;10.410;2024-03-08T10:05:26;101901.66;;;4.89;100.00
10510;BME280;5303;53.266;10.410;2024-03-08T10:07:26;101897.03;;;4.89;100.00
10510;BME280;5303;53.266;10.410;2024-03-08T10:09:26;101891.59;;;4.89;100.00
10510;BME280;5303;53.266;10.410;2024-03-08T10:11:27;101886.31;;;4.99;100.00
10510;BME280;5303;53.266;10.410;2024-03-08T10:13:28;101878.56;;;5.08;100.00
10510;BME280;5303;53.266;10.410;2024-03-08T10:15:29;101882.44;;;5.12;100.00
10510;BME280;5303;53.266;10.410;2024-03-08T10:17:29;101876.94;;;5.23;100.00
10510;BME280;5303;53.266;10.410;2024-03-08T10:19:32;101871.16;;;5.20;100.00
10510;BME280;5303;53.266;10.410;2024-03-08T10:21:33;101861.22;;;5.30;100.00
10510;BME280;5303;53.266;10.410;2024-03-08T10:23:33;101867.69;;;5.24;100.00
10510;BME280;5303;53.266;10.410;2024-03-08T10:25:34;101865.78;;;5.25;100.00
10510;BME280;5303;53.266;10.410;2024-03-08T10:27:35;101857.94;;;5.28;100.00
10510;BME280;5303;53.266;10.410;2024-03-08T10:29:35;101862.16;;;5.36;100.00
10510;BME280;5303;53.266;10.410;2024-03-08T10:31:36;101859.59;;;5.29;100.00
10510;BME280;5303;53.266;10.410;2024-03-08T10:33:38;101852.47;;;5.45;100.00